Time;durP1;ratioP1;P1;durP2;ratioP2;P2;SDS_P1;SDS_P2;PMS_P1;PMS_P2;Temp;Humidity;BMP_temperature;BMP_pressure;BME280_temperature;BME280_humidity;BME280_pressure;Samples;Min_cycle;Max_cycle;Signal;HPM_P1;HPM_P2
2022/04/07 00:00:37;;;;;;;4.63;0.98;;;;;;;28.46;17.57;101548.13;5052993;28;20041;-57
2022/04/07 00:03:03;;;;;;;3.40;1.13;;;;;;;28.49;17.74;101555.78;5052871;28;20045;-57
2022/04/07 00:05:29;;;;;;;3.22;0.95;;;;;;;28.47;18.24;101553.31;5053017;28;20095;-57
2022/04/07 00:07:56;;;;;;;1.67;1.08;;;;;;;28.46;18.69;101548.13;5052368;28;20041;-57
2022/04/07 00:10:22;;;;;;;3.05;0.70;;;;;;;28.48;17.51;101549.44;5053149;28;20033;-57
2022/04/07 00:12:48;;;;;;;2.65;0.95;;;;;;;28.31;18.23;101549.22;5053314;28;20165;-57
2022/04/07 00:15:14;;;;;;;4.30;1.00;;;;;;;28.25;19.37;101550.47;5052789;28;20099;-57
2022/04/07 00:17:41;;;;;;;3.00;0.90;;;;;;;28.43;18.07;101541.31;5052448;28;20025;-57
2022/04/07 00:20:07;;;;;;;5.13;1.30;;;;;;;28.31;17.76;101539.03;5052710;28;20504;-57
2022/04/07 00:22:34;;;;;;;2.17;0.80;;;;;;;28.29;17.03;101543.22;5049620;28;20045;-57
2022/04/07 00:25:01;;;;;;;3.70;1.05;;;;;;;28.29;17.43;101529.47;5033021;28;20040;-57
2022/04/07 00:27:28;;;;;;;3.30;0.90;;;;;;;28.09;18.02;101541.72;5032944;28;20025;-57
2022/04/07 00:29:54;;;;;;;1.10;0.70;;;;;;;27.96;17.19;101537.84;5032318;28;20025;-57
2022/04/07 00:32:20;;;;;;;3.83;1.00;;;;;;;27.83;18.04;101528.50;5032791;28;20032;-57
2022/04/07 00:34:46;;;;;;;3.22;0.90;;;;;;;27.77;17.82;101529.72;5032576;28;20025;-57
2022/04/07 00:37:13;;;;;;;3.22;1.02;;;;;;;27.86;17.64;101529.81;5033024;28;20124;-57
2022/04/07 00:39:39;;;;;;;3.72;0.93;;;;;;;27.77;17.47;101523.41;5032185;28;20044;-57
2022/04/07 00:42:06;;;;;;;3.45;0.95;;;;;;;27.72;18.21;101526.25;5042324;28;20352;-57
2022/04/07 00:44:32;;;;;;;3.25;0.80;;;;;;;27.72;18.79;101523.50;5051994;28;20070;-57
2022/04/07 00:46:58;;;;;;;5.40;1.20;;;;;;;27.75;18.99;101526.44;5047702;28;20357;-57
2022/04/07 00:49:24;;;;;;;4.85;1.15;;;;;;;27.66;18.57;101521.94;5050480;28;20089;-57
2022/04/07 00:51:51;;;;;;;3.30;1.25;;;;;;;27.73;18.54;101522.38;5038966;28;20030;-57
2022/04/07 00:54:17;;;;;;;2.58;1.10;;;;;;;27.73;17.92;101517.69;5014650;28;20481;-57
2022/04/07 00:56:44;;;;;;;2.05;1.10;;;;;;;27.68;19.03;101523.25;5042373;28;20048;-57
2022/04/07 00:59:16;;;;;;;2.03;1.10;;;;;;;27.73;18.98;101522.38;5044174;28;20029;-57
2022/04/07 01:01:44;;;;;;;7.43;1.50;;;;;;;27.86;21.18;101527.06;5052095;28;20143;-58
2022/04/07 01:04:10;;;;;;;8.10;2.83;;;;;;;27.97;25.94;101522.97;5035182;28;20028;-58
2022/04/07 01:06:36;;;;;;;12.45;4.38;;;;;;;27.93;27.30;101521.13;5047105;28;20025;-58
2022/04/07 01:09:03;;;;;;;7.78;4.05;;;;;;;27.62;27.53;101525.28;5050284;28;20041;-57
2022/04/07 01:11:31;;;;;;;9.27;4.25;;;;;;;27.37;27.88;101520.25;5057667;22;20049;-57
2022/04/07 01:13:57;;;;;;;13.63;5.00;;;;;;;27.27;28.38;101520.47;5051659;28;20024;-57
2022/04/07 01:16:29;;;;;;;7.57;3.40;;;;;;;26.97;29.02;101522.56;5050279;28;20039;-56
2022/04/07 01:18:59;;;;;;;12.98;4.05;;;;;;;26.99;29.18;101525.84;5049504;28;20425;-57
2022/04/07 01:21:27;;;;;;;15.25;4.80;;;;;;;26.33;30.51;101526.81;5051643;28;20480;-57
2022/04/07 01:24:02;;;;;;;13.40;4.45;;;;;;;25.97;31.65;101527.25;5046399;28;20036;-57
2022/04/07 01:26:31;;;;;;;11.02;4.53;;;;;;;25.84;32.06;101522.47;5048994;28;20158;-57
2022/04/07 01:29:00;;;;;;;18.63;5.47;;;;;;;25.91;33.03;101528.44;5051319;28;20049;-57
2022/04/07 01:31:28;;;;;;;14.45;4.60;;;;;;;26.08;33.92;101519.72;5051463;28;20416;-57
2022/04/07 01:33:57;;;;;;;14.95;4.72;;;;;;;25.94;33.09;101524.31;5050858;28;20491;-57
2022/04/07 01:36:26;;;;;;;12.07;4.80;;;;;;;25.70;34.32;101518.75;5043937;28;20079;-58
2022/04/07 01:38:53;;;;;;;12.95;5.25;;;;;;;25.71;34.33;101517.69;5031346;28;20025;-57
2022/04/07 01:41:21;;;;;;;13.85;5.18;;;;;;;25.34;34.98;101519.16;5032614;28;20030;-57
2022/04/07 01:43:50;;;;;;;18.30;5.47;;;;;;;25.36;34.84;101521.59;5043950;28;20033;-57
2022/04/07 01:46:19;;;;;;;13.18;5.13;;;;;;;25.56;35.67;101512.34;5050954;28;20496;-57
2022/04/07 01:48:46;;;;;;;21.15;5.75;;;;;;;25.38;34.70;101516.66;5050517;28;20028;-57
2022/04/07 01:51:13;;;;;;;15.43;4.68;;;;;;;25.49;35.06;101509.97;5050277;28;20028;-57
2022/04/07 01:53:40;;;;;;;15.35;5.03;;;;;;;25.37;35.13;101513.06;5051517;28;20361;-57
2022/04/07 01:56:06;;;;;;;11.80;4.80;;;;;;;24.81;35.89;101510.78;5051374;28;20017;-57
2022/04/07 01:58:34;;;;;;;9.93;4.43;;;;;;;24.89;36.61;101495.69;5051869;28;20036;-57
2022/04/07 02:01:00;;;;;;;14.20;4.97;;;;;;;24.82;36.38;101506.97;5055392;28;20033;-57
2022/04/07 02:03:27;;;;;;;17.90;5.03;;;;;;;24.48;37.42;101512.38;5055283;28;20025;-57
2022/04/07 02:05:53;;;;;;;12.05;4.60;;;;;;;24.68;36.92;101506.78;5055582;28;20056;-58
2022/04/07 02:08:19;;;;;;;15.98;5.70;;;;;;;24.48;38.08;101513.19;5037414;28;20376;-59
2022/04/07 02:10:45;;;;;;;15.65;5.40;;;;;;;23.55;38.65;101518.47;5035436;28;20521;-59
2022/04/07 02:13:14;;;;;;;14.45;4.68;;;;;;;23.84;38.53;101524.97;5028973;28;20033;-58
2022/04/07 02:15:40;;;;;;;15.20;5.45;;;;;;;24.04;39.05;101515.03;5035382;28;20412;-58
2022/04/07 02:18:07;;;;;;;17.30;5.72;;;;;;;24.04;38.27;101520.50;5032666;28;20473;-63
2022/04/07 02:20:33;;;;;;;14.93;5.07;;;;;;;23.66;39.08;101511.91;5033648;28;20052;-59
2022/04/07 02:22:59;;;;;;;11.27;4.40;;;;;;;23.63;39.27;101517.91;5030827;28;20069;-63
2022/04/07 02:25:27;;;;;;;15.65;5.20;;;;;;;23.49;39.42;101516.84;5032578;28;20123;-64
2022/04/07 02:27:55;;;;;;;9.38;4.03;;;;;;;23.03;40.36;101516.84;5030701;28;20129;-62
2022/04/07 02:30:21;;;;;;;13.98;5.43;;;;;;;22.94;40.75;101508.41;5035234;28;20074;-60
2022/04/07 02:32:48;;;;;;;15.65;5.75;;;;;;;23.00;40.30;101503.75;5031917;28;20049;-64
2022/04/07 02:35:14;;;;;;;15.98;5.97;;;;;;;23.03;40.86;101514.13;5029155;28;20036;-57
2022/04/07 02:37:42;;;;;;;17.25;6.18;;;;;;;22.81;41.04;101515.16;5029518;28;20081;-57
2022/04/07 02:40:09;;;;;;;18.45;6.78;;;;;;;22.35;42.18;101514.25;5026047;28;20029;-57
2022/04/07 02:42:35;;;;;;;14.25;5.60;;;;;;;22.38;41.66;101517.28;5022363;28;20469;-57
2022/04/07 02:45:02;;;;;;;17.13;6.03;;;;;;;22.29;42.34;101524.34;5026420;28;20060;-57
2022/04/07 02:47:38;;;;;;;19.25;6.63;;;;;;;22.18;42.41;101517.22;5026864;28;20084;-57
2022/04/07 02:50:05;;;;;;;18.90;6.00;;;;;;;22.35;41.96;101520.53;5030694;28;20034;-57
2022/04/07 02:52:32;;;;;;;20.48;6.15;;;;;;;22.18;42.21;101530.84;5034509;28;20026;-57
2022/04/07 02:54:59;;;;;;;14.23;5.90;;;;;;;22.08;42.83;101534.31;5034075;28;20030;-57
2022/04/07 02:57:30;;;;;;;17.55;6.53;;;;;;;21.92;43.16;101537.22;5033940;28;20047;-57
2022/04/07 02:59:58;;;;;;;15.93;5.93;;;;;;;21.60;43.69;101535.44;5034499;28;20021;-57
2022/04/07 03:02:25;;;;;;;18.48;5.28;;;;;;;21.79;43.49;101533.09;5034499;28;20032;-57
2022/04/07 03:04:52;;;;;;;18.88;5.32;;;;;;;21.68;43.82;101545.81;5030431;28;20034;-57
2022/04/07 03:07:19;;;;;;;15.55;5.07;;;;;;;21.61;43.93;101540.63;5021724;28;20025;-57
2022/04/07 03:09:46;;;;;;;16.75;5.40;;;;;;;21.57;44.31;101541.41;5013020;28;20063;-57
2022/04/07 03:12:14;;;;;;;15.38;6.18;;;;;;;21.57;44.67;101547.66;5025174;28;20497;-56
2022/04/07 03:14:42;;;;;;;24.92;6.18;;;;;;;21.48;44.80;101542.94;5019671;28;20022;-57
2022/04/07 03:17:08;;;;;;;25.13;7.18;;;;;;;21.28;45.76;101546.34;5032015;28;20568;-57
2022/04/07 03:19:37;;;;;;;19.92;6.22;;;;;;;21.26;45.87;101546.56;5013809;28;20060;-57
2022/04/07 03:22:04;;;;;;;17.75;5.45;;;;;;;21.18;46.35;101548.97;5014628;28;20026;-57
2022/04/07 03:24:30;;;;;;;20.92;6.75;;;;;;;21.06;46.66;101549.97;5024462;28;20026;-57
2022/04/07 03:26:57;;;;;;;18.50;7.28;;;;;;;20.99;47.06;101559.44;5022489;28;20486;-58
2022/04/07 03:29:23;;;;;;;23.27;10.80;;;;;;;20.82;47.20;101551.34;5021656;28;20057;-57
2022/04/07 03:31:49;;;;;;;20.08;9.05;;;;;;;20.82;47.45;101557.63;5022179;28;20072;-57
2022/04/07 03:34:15;;;;;;;24.08;9.35;;;;;;;20.80;47.64;101559.78;5031091;28;20536;-57
2022/04/07 03:36:42;;;;;;;16.70;7.97;;;;;;;20.67;47.95;101560.19;5014252;28;20608;-57
2022/04/07 03:39:09;;;;;;;22.75;8.30;;;;;;;20.63;47.80;101558.22;5031123;28;20053;-57
2022/04/07 03:41:35;;;;;;;21.65;7.13;;;;;;;20.64;47.94;101577.00;5033716;28;20048;-57
2022/04/07 03:44:03;;;;;;;21.40;7.60;;;;;;;20.62;48.24;101573.75;5033733;28;20544;-57
2022/04/07 03:46:29;;;;;;;20.02;7.18;;;;;;;20.42;48.51;101581.63;5040672;28;20029;-57
2022/04/07 03:48:58;;;;;;;18.95;6.30;;;;;;;20.35;48.49;101586.44;5039107;28;20021;-57
2022/04/07 03:51:24;;;;;;;18.17;6.65;;;;;;;20.39;48.72;101579.41;5041112;28;20025;-57
2022/04/07 03:53:51;;;;;;;18.65;6.55;;;;;;;20.28;48.53;101592.06;5033187;28;20358;-57
2022/04/07 03:56:17;;;;;;;13.02;5.18;;;;;;;20.19;48.31;101593.56;5033519;28;20056;-57
2022/04/07 03:58:43;;;;;;;15.40;6.15;;;;;;;20.09;48.53;101596.13;5033400;28;20025;-57
2022/04/07 04:01:10;;;;;;;17.60;6.95;;;;;;;20.02;48.37;101594.44;5033098;28;20026;-57
2022/04/07 04:03:37;;;;;;;14.88;6.03;;;;;;;20.00;48.52;101593.88;5032743;28;20028;-57
2022/04/07 04:06:03;;;;;;;17.05;5.28;;;;;;;19.90;48.19;101603.78;5033250;28;20472;-57
2022/04/07 04:08:29;;;;;;;7.18;3.42;;;;;;;19.84;46.46;101599.34;5024464;28;20030;-57
2022/04/07 04:10:56;;;;;;;9.98;3.55;;;;;;;19.69;46.01;101602.63;5032813;28;20045;-56
2022/04/07 04:13:22;;;;;;;8.68;3.30;;;;;;;19.58;45.41;101607.06;5017241;28;20034;-57
2022/04/07 04:15:50;;;;;;;7.35;2.78;;;;;;;19.48;44.12;101607.69;5013346;28;20373;-57
2022/04/07 04:18:16;;;;;;;6.43;2.90;;;;;;;19.50;44.43;101607.47;5013070;28;20452;-57
2022/04/07 04:20:42;;;;;;;7.88;2.50;;;;;;;19.52;44.36;101603.44;5013401;28;20037;-57
2022/04/07 04:23:08;;;;;;;8.23;2.78;;;;;;;19.50;44.04;101599.34;5021256;28;20096;-57
2022/04/07 04:25:35;;;;;;;5.72;2.25;;;;;;;19.42;44.05;101616.84;5033087;28;20456;-56
2022/04/07 04:28:01;;;;;;;4.32;1.70;;;;;;;19.33;43.39;101610.19;5032651;28;20373;-57
2022/04/07 04:30:30;;;;;;;3.30;1.92;;;;;;;19.45;42.67;101610.94;5032727;28;20025;-57
2022/04/07 04:32:56;;;;;;;3.35;1.70;;;;;;;19.26;42.55;101615.75;5033056;28;20036;-57
2022/04/07 04:35:22;;;;;;;4.82;1.50;;;;;;;19.23;42.58;101613.53;5032593;28;20056;-57
2022/04/07 04:37:48;;;;;;;6.72;1.75;;;;;;;19.19;42.64;101622.41;5032111;28;20377;-57
2022/04/07 04:40:15;;;;;;;3.88;1.73;;;;;;;19.05;42.95;101621.09;5023947;28;20018;-57
2022/04/07 04:42:42;;;;;;;4.20;1.70;;;;;;;19.16;42.08;101614.78;5012911;28;20014;-57
2022/04/07 04:45:09;;;;;;;3.42;1.48;;;;;;;19.04;42.41;101620.22;5012704;28;20076;-57
2022/04/07 04:47:35;;;;;;;3.83;1.60;;;;;;;18.90;42.41;101621.59;4994882;28;20428;-57
2022/04/07 04:50:06;;;;;;;4.80;1.10;;;;;;;18.83;42.23;101620.94;5012330;28;20025;-56
2022/04/07 04:52:33;;;;;;;3.28;1.63;;;;;;;18.80;41.99;101626.84;5012667;28;20034;-57
2022/04/07 04:54:59;;;;;;;5.35;2.40;;;;;;;18.73;42.22;101632.41;5012616;28;20034;-57
2022/04/07 04:57:27;;;;;;;6.93;2.10;;;;;;;18.69;42.09;101629.34;5022969;28;20027;-57
2022/04/07 04:59:53;;;;;;;3.55;1.40;;;;;;;18.66;42.11;101637.13;5032232;28;20030;-56
2022/04/07 05:02:19;;;;;;;4.45;1.50;;;;;;;18.64;42.35;101633.81;5032206;28;20025;-57
2022/04/07 05:04:46;;;;;;;4.95;2.13;;;;;;;18.55;42.17;101635.25;5032184;28;20495;-57
2022/04/07 05:07:12;;;;;;;4.85;1.63;;;;;;;18.45;41.59;101635.88;5031575;28;20043;-57
2022/04/07 05:09:38;;;;;;;3.30;1.17;;;;;;;18.46;40.76;101627.50;5031996;28;20028;-57
2022/04/07 05:12:05;;;;;;;3.05;1.17;;;;;;;18.33;40.84;101633.19;5032153;28;20076;-57
2022/04/07 05:14:32;;;;;;;4.60;1.33;;;;;;;18.26;40.50;101637.06;5031652;28;20068;-56
2022/04/07 05:16:58;;;;;;;3.28;1.73;;;;;;;18.25;41.08;101635.41;5032213;28;20104;-56
2022/04/07 05:19:24;;;;;;;2.20;1.20;;;;;;;18.18;41.25;101636.38;5031601;28;20064;-55
2022/04/07 05:21:50;;;;;;;2.08;1.40;;;;;;;18.14;41.48;101635.19;5031694;28;20091;-57
2022/04/07 05:24:18;;;;;;;2.67;1.33;;;;;;;18.11;41.86;101632.16;5031955;28;20025;-56
2022/04/07 05:26:45;;;;;;;3.78;1.20;;;;;;;18.03;41.80;101633.31;5031828;28;20539;-57
2022/04/07 05:29:11;;;;;;;4.15;1.40;;;;;;;18.21;42.41;101635.06;5031422;28;20084;-57
2022/04/07 05:31:37;;;;;;;2.35;0.95;;;;;;;17.98;42.24;101638.63;5031713;28;20436;-57
2022/04/07 05:34:03;;;;;;;3.90;1.15;;;;;;;17.86;41.50;101637.78;5031044;28;20026;-57
2022/04/07 05:36:30;;;;;;;2.67;1.20;;;;;;;17.81;40.96;101652.03;5031671;28;20026;-56
2022/04/07 05:38:57;;;;;;;3.63;1.45;;;;;;;17.69;40.76;101649.28;5031400;28;20029;-56
2022/04/07 05:41:23;;;;;;;1.20;0.90;;;;;;;17.91;40.19;101644.16;5031522;28;20451;-57
2022/04/07 05:43:50;;;;;;;4.78;1.40;;;;;;;17.74;41.13;101659.44;5031960;28;20025;-57
2022/04/07 05:46:16;;;;;;;2.85;1.40;;;;;;;17.80;41.26;101654.97;5031726;28;20472;-56
2022/04/07 05:48:42;;;;;;;2.15;1.30;;;;;;;17.77;41.49;101660.88;5026170;28;20103;-57
2022/04/07 05:51:08;;;;;;;1.67;1.20;;;;;;;17.66;41.94;101657.06;5029663;28;20462;-57
2022/04/07 05:53:35;;;;;;;3.50;1.40;;;;;;;17.62;42.09;101658.59;5030955;28;20087;-56
2022/04/07 05:56:02;;;;;;;2.97;1.33;;;;;;;17.56;42.06;101660.34;5015085;28;20508;-57
2022/04/07 05:58:28;;;;;;;2.97;1.52;;;;;;;17.53;41.94;101654.56;5030423;28;20040;-57
2022/04/07 06:00:54;;;;;;;2.75;1.48;;;;;;;17.52;42.00;101669.16;5031590;28;20040;-57
2022/04/07 06:03:21;;;;;;;3.20;1.65;;;;;;;17.48;42.28;101657.13;5030685;28;20041;-57
2022/04/07 06:05:52;;;;;;;3.95;1.40;;;;;;;17.36;43.20;101667.94;5030628;28;20036;-57
2022/04/07 06:08:22;;;;;;;4.20;1.50;;;;;;;17.21;42.98;101662.09;5031122;28;20040;-57
2022/04/07 06:10:48;;;;;;;2.28;1.38;;;;;;;17.21;43.49;101654.81;5030355;28;20088;-56
2022/04/07 06:13:15;;;;;;;2.15;1.23;;;;;;;17.19;43.38;101662.34;5030661;28;20091;-57
2022/04/07 06:15:42;;;;;;;5.45;1.70;;;;;;;17.16;43.49;101660.13;5030259;28;20034;-56
2022/04/07 06:18:09;;;;;;;5.57;1.58;;;;;;;17.09;44.11;101659.34;5029354;28;20088;-54
2022/04/07 06:20:35;;;;;;;4.45;2.00;;;;;;;17.08;44.53;101666.66;5031270;28;20105;-56
2022/04/07 06:23:01;;;;;;;4.05;1.58;;;;;;;17.02;44.48;101664.03;5030675;28;20559;-56
2022/04/07 06:25:27;;;;;;;5.13;1.92;;;;;;;16.99;44.84;101670.75;5031380;28;20112;-56
2022/04/07 06:27:54;;;;;;;3.28;1.30;;;;;;;16.94;44.88;101670.59;5030094;28;20108;-56
2022/04/07 06:30:21;;;;;;;3.13;1.90;;;;;;;16.87;45.11;101677.94;5030393;28;20527;-57
2022/04/07 06:32:48;;;;;;;8.10;2.03;;;;;;;16.86;45.20;101676.31;5028481;28;20038;-57
2022/04/07 06:35:16;;;;;;;5.13;1.83;;;;;;;16.78;45.26;101676.63;5013377;28;20036;-56
2022/04/07 06:37:52;;;;;;;6.15;1.73;;;;;;;16.76;45.39;101682.25;5030149;28;20038;-56
2022/04/07 06:40:27;;;;;;;6.03;1.70;;;;;;;16.69;45.57;101680.66;5031058;28;20431;-57
2022/04/07 06:42:55;;;;;;;3.70;1.55;;;;;;;16.64;45.65;101681.31;5030320;28;20079;-56
2022/04/07 06:45:22;;;;;;;3.97;1.60;;;;;;;16.58;45.49;101680.34;5032951;28;20037;-57
2022/04/07 06:47:49;;;;;;;6.25;2.15;;;;;;;16.52;45.20;101681.25;5028026;28;20097;-57
2022/04/07 06:50:17;;;;;;;7.65;1.92;;;;;;;16.52;45.42;101675.84;5030419;28;20060;-57
2022/04/07 06:52:44;;;;;;;5.47;1.33;;;;;;;16.47;45.79;101669.47;5023399;28;20026;-56
2022/04/07 06:55:12;;;;;;;4.32;1.45;;;;;;;16.42;45.83;101677.41;5026755;28;20377;-57
2022/04/07 06:57:51;;;;;;;2.47;1.38;;;;;;;16.42;46.29;101669.31;5032295;28;20080;-56
2022/04/07 07:00:19;;;;;;;3.03;1.20;;;;;;;16.24;46.39;101678.22;5016593;28;20028;-56
2022/04/07 07:02:48;;;;;;;6.32;1.90;;;;;;;16.19;46.00;101667.25;5014576;28;20026;-56
2022/04/07 07:05:15;;;;;;;4.85;1.63;;;;;;;16.19;45.68;101669.97;5015662;28;20121;-57
2022/04/07 07:07:43;;;;;;;2.28;1.27;;;;;;;16.18;45.99;101662.91;5014147;28;20096;-57
2022/04/07 07:10:09;;;;;;;2.67;1.15;;;;;;;16.08;45.68;101669.66;5032315;28;20402;-56
2022/04/07 07:12:35;;;;;;;3.22;1.45;;;;;;;16.07;45.04;101678.81;5033394;28;20047;-57
2022/04/07 07:15:02;;;;;;;3.20;1.17;;;;;;;16.01;44.05;101681.56;5033516;28;20022;-57
2022/04/07 07:17:33;;;;;;;2.85;1.40;;;;;;;16.03;44.92;101680.28;5032678;28;20021;-56
2022/04/07 07:20:04;;;;;;;2.92;1.00;;;;;;;15.98;45.18;101680.13;5034323;28;20083;-57
2022/04/07 07:22:31;;;;;;;6.20;1.00;;;;;;;16.02;44.42;101681.34;5033237;28;20485;-56
2022/04/07 07:24:58;;;;;;;4.57;1.48;;;;;;;16.00;44.49;101677.22;5033389;28;20030;-57
2022/04/07 07:27:24;;;;;;;2.17;0.80;;;;;;;16.04;44.98;101681.94;5032872;28;20026;-56
2022/04/07 07:29:51;;;;;;;3.00;1.05;;;;;;;15.92;45.29;101681.00;5033200;28;20029;-57
2022/04/07 07:32:18;;;;;;;1.90;1.10;;;;;;;15.88;45.38;101684.34;5032821;28;20451;-57
2022/04/07 07:34:44;;;;;;;4.25;1.33;;;;;;;15.82;45.46;101681.53;5033159;28;20550;-56
2022/04/07 07:37:10;;;;;;;2.38;0.90;;;;;;;15.78;45.21;101685.69;5032724;28;20032;-56
2022/04/07 07:39:36;;;;;;;3.72;1.23;;;;;;;15.81;45.05;101693.34;5032858;28;20033;-56
2022/04/07 07:42:03;;;;;;;3.60;0.90;;;;;;;15.81;45.03;101687.13;5032824;28;20039;-56
2022/04/07 07:44:29;;;;;;;3.42;1.27;;;;;;;15.78;45.25;101687.56;5032916;28;20079;-57
2022/04/07 07:46:55;;;;;;;2.65;1.23;;;;;;;15.73;45.22;101690.09;5033182;28;20377;-56
2022/04/07 07:49:21;;;;;;;4.30;1.40;;;;;;;15.71;45.43;101694.88;5029850;28;20095;-57
2022/04/07 07:51:51;;;;;;;5.18;1.45;;;;;;;15.72;45.40;101696.56;5025454;28;20077;-56
2022/04/07 07:54:18;;;;;;;2.72;1.20;;;;;;;15.72;45.45;101701.94;5013860;28;20080;-57
2022/04/07 07:56:44;;;;;;;3.47;1.30;;;;;;;15.70;45.47;101693.22;5025721;28;20036;-56
2022/04/07 07:59:11;;;;;;;9.25;1.70;;;;;;;15.62;45.54;101693.47;5033515;28;20033;-56
2022/04/07 08:01:37;;;;;;;3.92;1.42;;;;;;;15.64;45.66;101702.19;5031343;28;20033;-57
2022/04/07 08:04:03;;;;;;;2.33;0.90;;;;;;;15.65;45.43;101707.38;5033328;28;20079;-57
2022/04/07 08:06:29;;;;;;;2.75;1.20;;;;;;;15.55;45.30;101697.06;5019412;28;20527;-55
2022/04/07 08:08:56;;;;;;;4.47;1.25;;;;;;;15.59;45.28;101702.81;5013319;28;20029;-57
2022/04/07 08:11:22;;;;;;;3.67;1.40;;;;;;;15.76;45.90;101700.44;5011080;28;20393;-56
2022/04/07 08:13:48;;;;;;;2.03;1.02;;;;;;;15.55;45.89;101704.31;5032358;28;20021;-56
2022/04/07 08:16:14;;;;;;;2.90;1.23;;;;;;;15.58;46.56;101710.09;5026855;28;20076;-57
2022/04/07 08:18:41;;;;;;;3.40;1.50;;;;;;;15.52;47.09;101712.84;5032069;28;20031;-56
2022/04/07 08:21:07;;;;;;;5.97;1.55;;;;;;;15.53;47.57;101704.53;5014749;28;20075;-56
2022/04/07 08:23:33;;;;;;;3.00;1.35;;;;;;;15.34;47.71;101707.34;5032927;28;20053;-56
2022/04/07 08:25:59;;;;;;;2.50;1.35;;;;;;;15.25;47.65;101707.59;5032279;28;20032;-57
2022/04/07 08:28:25;;;;;;;3.35;1.40;;;;;;;15.15;48.14;101711.78;5031530;28;20370;-57
2022/04/07 08:30:51;;;;;;;1.48;1.00;;;;;;;15.19;47.78;101704.94;5028617;28;20025;-56
2022/04/07 08:33:18;;;;;;;3.25;1.38;;;;;;;15.28;46.68;101706.34;5032400;28;20083;-56
2022/04/07 08:35:44;;;;;;;4.53;1.15;;;;;;;15.14;46.62;101705.56;5032768;28;20507;-56
2022/04/07 08:38:14;;;;;;;2.53;1.00;;;;;;;15.17;46.80;101704.34;5030895;28;20080;-56
2022/04/07 08:40:42;;;;;;;3.85;1.45;;;;;;;15.19;46.88;101711.16;5032896;28;20470;-56
2022/04/07 08:43:09;;;;;;;3.70;1.38;;;;;;;15.14;47.22;101708.28;5030529;28;20033;-56
2022/04/07 08:45:42;;;;;;;4.78;1.17;;;;;;;15.07;47.52;101710.19;5031522;28;20037;-56
2022/04/07 08:48:11;;;;;;;3.30;0.98;;;;;;;14.97;47.82;101705.25;5024211;28;20046;-57
2022/04/07 08:50:42;;;;;;;4.57;1.13;;;;;;;14.99;48.66;101713.97;5025634;28;20030;-56
2022/04/07 08:53:09;;;;;;;4.55;1.38;;;;;;;14.84;49.05;101720.66;5021591;28;20122;-56
2022/04/07 08:55:35;;;;;;;2.97;1.50;;;;;;;14.82;50.51;101707.38;5012462;28;20029;-56
2022/04/07 08:58:02;;;;;;;7.05;1.92;;;;;;;14.93;50.85;101709.41;5022919;28;20033;-56
2022/04/07 09:00:28;;;;;;;3.05;1.40;;;;;;;14.91;51.21;101708.78;5031423;28;20028;-57
2022/04/07 09:02:55;;;;;;;3.70;1.38;;;;;;;14.75;51.31;101709.25;5014884;28;20326;-56
2022/04/07 09:05:25;;;;;;;2.53;1.30;;;;;;;14.67;51.76;101704.13;5031108;28;20113;-56
2022/04/07 09:07:56;;;;;;;3.33;1.50;;;;;;;14.68;52.06;101705.78;5031023;28;20107;-57
2022/04/07 09:10:26;;;;;;;3.47;1.27;;;;;;;14.54;52.30;101696.88;5031441;28;20049;-56
2022/04/07 09:12:53;;;;;;;3.33;1.50;;;;;;;14.60;52.86;101708.69;5051137;23;20063;-56
2022/04/07 09:15:20;;;;;;;2.85;1.40;;;;;;;14.50;52.77;101704.59;5049927;28;20028;-56
2022/04/07 09:17:55;;;;;;;4.25;1.40;;;;;;;14.41;52.86;101692.34;5050033;28;20083;-57
2022/04/07 09:20:22;;;;;;;3.05;1.40;;;;;;;14.57;52.73;101698.34;5051381;28;20039;-56
2022/04/07 09:23:01;;;;;;;4.03;1.63;;;;;;;14.51;52.89;101695.44;5051797;28;20058;-56
2022/04/07 09:25:28;;;;;;;1.90;1.25;;;;;;;14.38;53.06;101700.84;5032495;28;20028;-56
2022/04/07 09:27:57;;;;;;;2.50;1.42;;;;;;;14.37;53.40;101692.97;5033287;28;20029;-56
2022/04/07 09:30:24;;;;;;;3.42;1.63;;;;;;;14.36;53.21;101696.69;5050920;28;20484;-57
2022/04/07 09:32:51;;;;;;;3.63;1.98;;;;;;;14.20;53.13;101688.00;5049467;28;20116;-56
2022/04/07 09:35:17;;;;;;;3.10;1.52;;;;;;;14.43;53.04;101684.84;5051551;28;20052;-56
2022/04/07 09:37:43;;;;;;;5.03;1.50;;;;;;;14.50;52.72;101679.50;5050808;28;20037;-57
2022/04/07 09:40:15;;;;;;;4.82;2.17;;;;;;;14.38;53.06;101682.00;5051650;28;20025;-56
2022/04/07 09:42:42;;;;;;;1.50;1.40;;;;;;;14.16;53.61;101676.03;5050433;28;20024;-56
2022/04/07 09:45:13;;;;;;;3.83;1.50;;;;;;;14.40;53.50;101682.59;5049871;28;20024;-57
2022/04/07 09:47:42;;;;;;;3.25;1.33;;;;;;;14.43;53.79;101684.03;5048528;28;20095;-56
2022/04/07 09:50:20;;;;;;;5.47;1.65;;;;;;;14.04;54.20;101687.63;5050758;28;20033;-56
2022/04/07 09:52:58;;;;;;;3.47;1.35;;;;;;;13.95;54.40;101689.69;5048396;28;20122;-56
2022/04/07 09:55:35;;;;;;;7.85;1.45;;;;;;;14.06;54.57;101681.00;5033582;28;20196;-56
2022/04/07 09:58:03;;;;;;;5.85;1.88;;;;;;;14.17;54.27;101680.38;5042206;28;20036;-56
2022/04/07 10:00:31;;;;;;;5.20;1.50;;;;;;;14.19;54.27;101683.66;5050869;28;20539;-56
2022/04/07 10:03:02;;;;;;;2.67;1.33;;;;;;;14.21;54.29;101678.91;5050372;28;20025;-56
2022/04/07 10:05:29;;;;;;;7.05;1.45;;;;;;;14.12;54.41;101684.72;5051452;28;20547;-56
2022/04/07 10:07:59;;;;;;;3.65;1.58;;;;;;;13.99;54.77;101688.22;5050646;28;20029;-56
2022/04/07 10:10:26;;;;;;;4.78;1.67;;;;;;;13.94;55.03;101680.81;5049739;28;20361;-56
2022/04/07 10:12:52;;;;;;;4.68;1.50;;;;;;;14.03;54.94;101677.88;5051196;28;20354;-56
2022/04/07 10:15:19;;;;;;;3.53;1.23;;;;;;;13.99;55.19;101675.63;5047156;28;20378;-56
2022/04/07 10:17:46;;;;;;;2.85;1.80;;;;;;;13.93;55.13;101676.44;5030952;28;20108;-56
2022/04/07 10:20:16;;;;;;;6.47;2.05;;;;;;;13.80;55.50;101681.81;5033749;28;20036;-56
2022/04/07 10:23:06;;;;;;;6.45;1.67;;;;;;;13.87;55.39;101681.81;5035515;28;20026;-56
2022/04/07 10:25:36;;;;;;;5.55;1.60;;;;;;;13.43;56.38;101678.69;5034885;28;20021;-56
2022/04/07 10:28:06;;;;;;;3.28;1.55;;;;;;;13.54;56.69;101679.09;5034854;28;20088;-56
2022/04/07 10:30:49;;;;;;;3.38;1.33;;;;;;;13.41;56.98;101670.00;5034982;28;20026;-56
2022/04/07 10:33:34;;;;;;;2.83;1.50;;;;;;;13.38;57.54;101672.25;5035016;28;20030;-56
2022/04/07 10:36:09;;;;;;;2.78;1.35;;;;;;;13.50;56.79;101675.19;5035156;28;20017;-56
2022/04/07 10:38:44;;;;;;;3.90;1.45;;;;;;;13.47;56.62;101673.72;5034340;28;20040;-56
2022/04/07 10:41:10;;;;;;;;;;;;;;;13.49;56.77;101671.66;5035171;28;20079;-56
2022/04/07 10:43:38;;;;;;;3.13;1.63;;;;;;;13.29;57.27;101671.63;5034687;28;19921;-56
2022/04/07 10:46:10;;;;;;;5.28;1.80;;;;;;;13.23;57.64;101666.25;5034548;28;20091;-56
2022/04/07 10:48:49;;;;;;;3.90;1.27;;;;;;;13.18;57.74;101673.03;5034380;28;20098;-56
2022/04/07 10:51:16;;;;;;;4.38;1.40;;;;;;;13.07;58.43;101667.41;5034745;28;20025;-56
2022/04/07 10:54:02;;;;;;;4.47;1.48;;;;;;;13.16;58.05;101674.28;5034002;28;20110;-56
2022/04/07 10:56:38;;;;;;;1.92;1.20;;;;;;;13.03;58.44;101675.03;5034566;28;20065;-56
2022/04/07 10:59:19;;;;;;;4.45;1.38;;;;;;;12.90;58.65;101677.69;5031706;28;20112;-56
2022/04/07 11:01:56;;;;;;;5.18;1.40;;;;;;;12.91;59.07;101682.03;5014101;28;20026;-56
2022/04/07 11:04:22;;;;;;;4.50;1.42;;;;;;;12.98;58.72;101680.19;4997113;28;20026;-56
2022/04/07 11:10:01;;;;;;;3.47;1.33;;;;;;;12.84;59.30;101682.00;5014467;28;20030;-56
2022/04/07 11:12:29;;;;;;;4.10;1.55;;;;;;;12.81;59.23;101679.72;5033223;28;20115;-56
2022/04/07 11:15:04;;;;;;;4.05;1.50;;;;;;;12.67;59.85;101688.75;5034204;28;20107;-56
2022/04/07 11:17:33;;;;;;;;;;;;;;;12.70;59.67;101680.28;5033597;28;20083;-56
2022/04/07 11:20:03;;;;;;;2.25;1.25;;;;;;;12.69;59.45;101675.94;5014430;28;20171;-56
2022/04/07 11:22:53;;;;;;;2.08;1.10;;;;;;;12.80;59.20;101683.44;5014067;28;20075;-55
2022/04/07 11:25:24;;;;;;;5.82;1.55;;;;;;;12.80;58.85;101687.97;5014201;28;20030;-56
2022/04/07 11:28:12;;;;;;;3.40;1.33;;;;;;;12.84;59.12;101690.06;5001927;28;20091;-56
2022/04/07 11:30:50;;;;;;;1.90;1.33;;;;;;;12.76;59.13;101676.78;5033138;28;20079;-56